Time;durP1;ratioP1;P1;durP2;ratioP2;P2;SDS_P1;SDS_P2;PMS_P1;PMS_P2;Temp;Humidity;BMP_temperature;BMP_pressure;BME280_temperature;BME280_humidity;BME280_pressure;Samples;Min_cycle;Max_cycle;Signal;HPM_P1;HPM_P2
2022/04/26 03:38:18;;;;;;;;;;;;;;;8.70;94.38;96027.94;5098600;28;19969;-76
2022/04/26 03:40:44;;;;;;;;;;;;;;;8.70;94.34;96027.94;5098652;28;19971;-76
2022/04/26 03:43:10;;;;;;;;;;;;;;;8.71;94.22;96037.38;5116523;28;19952;-76
2022/04/26 03:45:35;;;;;;;;;;;;;;;8.71;94.25;96031.34;5116617;28;20016;-76
2022/04/26 03:48:01;;;;;;;;;;;;;;;8.72;94.01;96040.78;5098556;28;20057;-76
2022/04/26 03:50:27;;;;;;;;;;;;;;;8.72;94.48;96038.19;5116627;28;20006;-76
2022/04/26 03:52:53;;;;;;;;;;;;;;;8.69;94.85;96044.66;5098389;28;20005;-76
2022/04/26 03:55:20;;;;;;;;;;;;;;;8.65;94.46;96040.88;5098203;28;19985;-76
2022/04/26 03:57:46;;;;;;;;;;;;;;;8.65;94.50;96048.69;5098920;28;19968;-76
2022/04/26 04:00:12;;;;;;;;;;;;;;;8.65;94.70;96046.09;5116224;28;19968;-76
2022/04/26 04:02:38;;;;;;;;;;;;;;;8.65;94.75;96053.94;5098201;28;20333;-75
2022/04/26 04:05:04;;;;;;;;;;;;;;;8.66;94.30;96059.94;5098229;28;19984;-76
2022/04/26 04:07:30;;;;;;;;;;;;;;;8.65;93.65;96055.72;5116299;28;19971;-76
2022/04/26 04:09:56;;;;;;;;;;;;;;;8.64;93.40;96057.53;5116254;28;19955;-75
2022/04/26 04:12:22;;;;;;;;;;;;;;;8.63;93.42;96063.81;5097830;28;19960;-75
2022/04/26 04:14:47;;;;;;;;;;;;;;;8.63;93.73;96065.59;5098059;28;19960;-75
2022/04/26 04:17:13;;;;;;;;;;;;;;;8.62;93.90;96070.03;5115949;28;19954;-76
2022/04/26 04:19:39;;;;;;;;;;;;;;;8.59;93.86;96065.25;5116039;28;20016;-76
2022/04/26 04:22:05;;;;;;;;;;;;;;;8.57;93.85;96062.03;5097686;28;19962;-76
2022/04/26 04:24:32;;;;;;;;;;;;;;;8.57;93.40;96066.44;5115882;28;19961;-76
2022/04/26 04:26:58;;;;;;;;;;;;;;;8.54;93.45;96065.06;5115306;28;19959;-76
2022/04/26 04:29:24;;;;;;;;;;;;;;;8.54;93.71;96063.25;5097838;28;20014;-76
2022/04/26 04:31:50;;;;;;;;;;;;;;;8.53;94.01;96061.66;5097604;28;20416;-76
2022/04/26 04:34:16;;;;;;;;;;;;;;;8.52;93.88;96065.31;5115793;28;20424;-76
2022/04/26 04:36:42;;;;;;;;;;;;;;;8.52;93.80;96064.47;5097441;28;19963;-76
2022/04/26 04:39:07;;;;;;;;;;;;;;;8.53;93.84;96066.09;5097961;28;20042;-76
2022/04/26 04:41:36;;;;;;;;;;;;;;;8.53;93.92;96064.28;5115573;28;20441;-76
2022/04/26 04:44:03;;;;;;;;;;;;;;;8.53;93.91;96071.31;5097969;28;20036;-76
2022/04/26 04:46:29;;;;;;;;;;;;;;;8.53;93.78;96076.56;5115347;28;19958;-76
2022/04/26 04:48:55;;;;;;;;;;;;;;;8.55;93.62;96079.75;5097304;28;19962;-76
2022/04/26 04:51:20;;;;;;;;;;;;;;;8.53;93.59;96068.72;5115162;28;19964;-76
2022/04/26 04:53:46;;;;;;;;;;;;;;;8.54;93.30;96068.47;5097095;28;20028;-77
2022/04/26 04:56:13;;;;;;;;;;;;;;;8.53;93.37;96072.13;5096999;28;19959;-76
2022/04/26 04:58:39;;;;;;;;;;;;;;;8.53;93.49;96069.50;5115360;28;19970;-76
2022/04/26 05:01:05;;;;;;;;;;;;;;;8.52;93.45;96065.31;5081153;28;19976;-76
2022/04/26 05:03:31;;;;;;;;;;;;;;;8.43;93.42;96061.34;5116998;28;19984;-75
2022/04/26 05:05:57;;;;;;;;;;;;;;;8.42;93.78;96070.22;5115657;28;19970;-77
2022/04/26 05:08:24;;;;;;;;;;;;;;;8.44;93.86;96075.19;5115158;28;19962;-76
2022/04/26 05:10:50;;;;;;;;;;;;;;;8.44;93.77;96078.63;5114979;28;20304;-76
2022/04/26 05:13:16;;;;;;;;;;;;;;;8.46;93.78;96074.00;5096970;28;19973;-76
2022/04/26 05:15:44;;;;;;;;;;;;;;;8.47;93.91;96072.97;5096844;28;20014;-76
2022/04/26 05:18:14;;;;;;;;;;;;;;;8.49;93.83;96068.31;5113781;28;19969;-76
2022/04/26 05:20:40;;;;;;;;;;;;;;;8.51;93.68;96075.97;5114623;28;20333;-76
2022/04/26 05:25:50;;;;;;;;;;;;;;;8.56;94.17;96085.78;5114819;28;20342;-75
2022/04/26 05:28:16;;;;;;;;;;;;;;;8.56;93.84;96093.59;5114706;28;19969;-76
2022/04/26 05:30:42;;;;;;;;;;;;;;;8.57;93.97;96101.25;5114541;28;19962;-76
2022/04/26 05:33:08;;;;;;;;;;;;;;;8.59;94.24;96094.00;5096079;28;19960;-76
2022/04/26 05:35:33;;;;;;;;;;;;;;;8.60;94.03;96092.16;5114548;28;20010;-76
2022/04/26 05:37:59;;;;;;;;;;;;;;;8.54;93.07;96094.59;5095550;28;20010;-75
2022/04/26 05:40:25;;;;;;;;;;;;;;;8.51;94.00;96105.50;5114261;28;19974;-76
2022/04/26 05:42:51;;;;;;;;;;;;;;;8.52;94.49;96103.69;5103323;28;20003;-75
2022/04/26 05:45:17;;;;;;;;;;;;;;;8.51;94.61;96102.88;5114434;28;20486;-77
2022/04/26 05:47:44;;;;;;;;;;;;;;;8.53;94.43;96110.53;5114428;28;20352;-76
2022/04/26 05:50:10;;;;;;;;;;;;;;;8.55;94.78;96103.28;5114593;28;19965;-76
2022/04/26 05:52:37;;;;;;;;;;;;;;;8.58;94.37;96100.22;5114318;28;19962;-75
2022/04/26 05:55:04;;;;;;;;;;;;;;;8.59;93.94;96098.41;5114129;28;19967;-75
2022/04/26 05:57:30;;;;;;;;;;;;;;;8.57;94.07;96097.81;5114222;28;19967;-76
2022/04/26 05:59:56;;;;;;;;;;;;;;;8.57;94.82;96101.25;5114137;28;19983;-76
2022/04/26 06:02:22;;;;;;;;;;;;;;;8.60;94.03;96100.81;5078983;28;20331;-76
2022/04/26 06:04:48;;;;;;;;;;;;;;;8.62;94.01;96090.16;5114290;28;19994;-75
2022/04/26 06:07:14;;;;;;;;;;;;;;;8.65;93.74;96090.53;5114648;28;19967;-75
2022/04/26 06:09:40;;;;;;;;;;;;;;;8.67;94.11;96095.53;5079433;28;20073;-77
2022/04/26 06:12:06;;;;;;;;;;;;;;;8.68;93.72;96105.75;5114289;28;20412;-76
2022/04/26 06:14:32;;;;;;;;;;;;;;;8.71;93.37;96107.16;5078970;28;19958;-75
2022/04/26 06:16:58;;;;;;;;;;;;;;;8.74;93.38;96109.34;5114107;28;19962;-78
2022/04/26 06:19:24;;;;;;;;;;;;;;;8.73;92.67;96105.13;5114054;28;19964;-75
2022/04/26 06:21:50;;;;;;;;;;;;;;;8.76;92.21;96117.78;5095772;28;19974;-75
2022/04/26 06:24:16;;;;;;;;;;;;;;;8.79;92.62;96122.56;5114326;28;20417;-76
2022/04/26 06:26:42;;;;;;;;;;;;;;;8.84;93.10;96116.69;5114931;28;19964;-76
2022/04/26 06:29:07;;;;;;;;;;;;;;;8.83;92.51;96107.25;5113047;28;20020;-75
2022/04/26 06:31:33;;;;;;;;;;;;;;;8.82;91.27;96108.25;5079507;28;19952;-75
2022/04/26 06:34:00;;;;;;;;;;;;;;;8.83;90.95;96107.25;5113983;28;19960;-75
2022/04/26 06:36:25;;;;;;;;;;;;;;;8.89;92.20;96116.88;5114023;28;19975;-75
2022/04/26 06:38:51;;;;;;;;;;;;;;;8.94;92.15;96119.63;5095903;28;20005;-75
2022/04/26 06:41:18;;;;;;;;;;;;;;;9.01;92.52;96130.84;5113941;28;20029;-75
2022/04/26 06:43:44;;;;;;;;;;;;;;;9.10;92.38;96128.75;5113644;28;20320;-75
2022/04/26 06:46:10;;;;;;;;;;;;;;;9.14;91.69;96140.38;5096143;28;20003;-75
2022/04/26 06:48:36;;;;;;;;;;;;;;;9.17;92.02;96145.16;5114174;28;20424;-75
2022/04/26 06:51:02;;;;;;;;;;;;;;;9.22;91.62;96140.09;5117699;28;20397;-75
2022/04/26 06:53:28;;;;;;;;;;;;;;;9.26;91.00;96143.06;5099585;28;20428;-75
2022/04/26 06:55:53;;;;;;;;;;;;;;;9.30;91.17;96134.59;5117741;28;20444;-75
2022/04/26 06:58:19;;;;;;;;;;;;;;;9.36;91.20;96132.91;5082675;28;20046;-75
2022/04/26 07:01:04;;;;;;;;;;;;;;;9.48;90.63;96127.75;5107214;28;19975;-75
2022/04/26 07:03:30;;;;;;;;;;;;;;;9.61;89.89;96113.69;5117883;28;19982;-75
2022/04/26 07:05:56;;;;;;;;;;;;;;;9.80;88.93;96112.66;5117425;28;19966;-75
2022/04/26 07:08:21;;;;;;;;;;;;;;;10.04;87.38;96120.63;5099523;28;19984;-76
2022/04/26 07:10:47;;;;;;;;;;;;;;;10.16;87.29;96106.56;5099515;28;20014;-75
2022/04/26 07:13:20;;;;;;;;;;;;;;;10.34;87.42;96095.22;5099490;28;20409;-77
2022/04/26 07:15:46;;;;;;;;;;;;;;;10.42;85.42;96095.94;5107003;28;19959;-75
2022/04/26 07:18:12;;;;;;;;;;;;;;;10.40;85.73;96109.25;5099371;28;19965;-75
2022/04/26 07:20:38;;;;;;;;;;;;;;;10.40;85.58;96098.78;5117218;28;19968;-75
2022/04/26 07:23:04;;;;;;;;;;;;;;;10.37;84.90;96086.09;5117336;28;19964;-77
2022/04/26 07:25:30;;;;;;;;;;;;;;;10.33;84.49;96085.78;5116766;28;20050;-74
2022/04/26 07:27:56;;;;;;;;;;;;;;;10.41;84.17;96096.94;5117098;28;20494;-74
2022/04/26 07:30:22;;;;;;;;;;;;;;;10.76;84.37;96099.63;5099448;28;20424;-78
2022/04/26 07:35:32;;;;;;;;;;;;;;;10.75;81.77;96087.50;5117419;28;19987;-77
2022/04/26 07:38:05;;;;;;;;;;;;;;;10.63;82.73;96091.97;5098912;28;20400;-76
2022/04/26 07:40:32;;;;;;;;;;;;;;;10.49;82.43;96104.47;5116735;28;19984;-78
2022/04/26 07:42:58;;;;;;;;;;;;;;;10.41;82.97;96110.06;5099396;28;19962;-76
2022/04/26 07:45:24;;;;;;;;;;;;;;;10.45;82.96;96122.47;5116841;28;20416;-76
2022/04/26 07:47:51;;;;;;;;;;;;;;;10.46;81.17;96136.41;5116939;28;19969;-74
2022/04/26 07:50:17;;;;;;;;;;;;;;;10.36;82.23;96144.81;5081650;28;19961;-76
2022/04/26 07:52:43;;;;;;;;;;;;;;;10.31;83.12;96144.66;5098653;28;19951;-76
2022/04/26 07:55:10;;;;;;;;;;;;;;;10.28;81.97;96150.31;5116676;28;20003;-76
2022/04/26 07:57:38;;;;;;;;;;;;;;;10.24;82.36;96151.78;5116777;28;19971;-76
2022/04/26 08:00:05;;;;;;;;;;;;;;;10.22;82.45;96157.25;5116320;28;19959;-73
2022/04/26 08:02:31;;;;;;;;;;;;;;;10.19;82.45;96162.94;5098121;28;19969;-73
2022/04/26 08:05:01;;;;;;;;;;;;;;;10.08;81.60;96159.25;5098300;28;19998;-74
2022/04/26 08:07:28;;;;;;;;;;;;;;;10.03;81.99;96174.03;5116399;28;19957;-76
2022/04/26 08:09:55;;;;;;;;;;;;;;;10.02;82.61;96180.31;5098308;28;19967;-76
2022/04/26 08:12:21;;;;;;;;;;;;;;;10.10;83.23;96178.19;5116374;28;19956;-76
2022/04/26 08:14:47;;;;;;;;;;;;;;;10.19;83.22;96170.03;5116588;28;19965;-75
2022/04/26 08:17:16;;;;;;;;;;;;;;;10.19;80.66;96165.56;5102781;28;19953;-76
2022/04/26 08:19:42;;;;;;;;;;;;;;;10.23;81.21;96169.34;5116099;28;19966;-75
2022/04/26 08:22:08;;;;;;;;;;;;;;;10.27;81.61;96180.19;5098438;28;19975;-75
2022/04/26 08:27:33;;;;;;;;;;;;;;;10.18;80.47;96187.53;5076812;28;19969;-76
2022/04/26 08:29:59;;;;;;;;;;;;;;;10.16;79.63;96179.09;5116109;28;19953;-76
2022/04/26 08:32:28;;;;;;;;;;;;;;;10.28;75.05;96158.97;5098082;28;19957;-75
2022/04/26 08:34:54;;;;;;;;;;;;;;;10.56;75.07;96166.28;5097812;28;20349;-75
2022/04/26 08:37:23;;;;;;;;;;;;;;;10.69;77.83;96198.59;5097870;28;19956;-75
2022/04/26 08:39:52;;;;;;;;;;;;;;;10.74;77.93;96204.75;5097728;28;19967;-76
2022/04/26 08:42:32;;;;;;;;;;;;;;;10.83;77.29;96209.66;5115777;28;19976;-75
2022/04/26 08:44:58;;;;;;;;;;;;;;;10.87;74.39;96190.63;5097962;28;19975;-76
2022/04/26 08:52:53;;;;;;;;;;;;;;;11.36;72.47;96179.97;5115569;28;20351;-75
2022/04/26 08:55:20;;;;;;;;;;;;;;;11.33;73.24;96201.41;5115495;28;19979;-75
2022/04/26 08:57:46;;;;;;;;;;;;;;;11.42;72.89;96205.28;5115627;28;19964;-75
2022/04/26 09:00:12;;;;;;;;;;;;;;;11.67;72.72;96202.41;5101409;28;19990;-75
2022/04/26 09:02:41;;;;;;;;;;;;;;;11.84;69.98;96172.78;5115332;28;20430;-74
2022/04/26 09:05:11;;;;;;;;;;;;;;;12.10;72.67;96203.06;5115533;28;20033;-75
2022/04/26 09:07:38;;;;;;;;;;;;;;;12.43;69.31;96172.63;5115203;28;19967;-75
2022/04/26 09:10:05;;;;;;;;;;;;;;;12.50;68.32;96154.88;5115588;28;19973;-75
2022/04/26 09:12:31;;;;;;;;;;;;;;;12.46;69.08;96166.91;5114325;28;19955;-75
2022/04/26 09:15:12;;;;;;;;;;;;;;;12.25;68.84;96179.69;5115440;28;19959;-74
2022/04/26 09:17:38;;;;;;;;;;;;;;;12.12;68.38;96172.06;5115310;28;19952;-75
2022/04/26 09:20:04;;;;;;;;;;;;;;;11.93;67.59;96161.72;5115224;28;19957;-75
2022/04/26 09:22:30;;;;;;;;;;;;;;;11.87;69.74;96193.38;5115083;28;19980;-74
2022/04/26 09:25:04;;;;;;;;;;;;;;;11.86;70.36;96194.38;5115031;28;19961;-75
2022/04/26 09:27:30;;;;;;;;;;;;;;;11.93;69.38;96195.91;5115561;28;19954;-75
2022/04/26 09:29:56;;;;;;;;;;;;;;;12.02;69.16;96191.06;5115028;28;19950;-75
2022/04/26 09:32:25;;;;;;;;;;;;;;;12.04;65.89;96160.09;5096796;28;19959;-74
2022/04/26 09:34:51;;;;;;;;;;;;;;;11.99;65.84;96157.38;5114899;28;19964;-74
2022/04/26 09:37:17;;;;;;;;;;;;;;;11.92;63.65;96135.69;5114642;28;19962;-75
2022/04/26 09:40:00;;;;;;;;;;;;;;;11.79;61.84;96128.84;5115128;28;20433;-74
2022/04/26 09:42:30;;;;;;;;;;;;;;;11.70;63.08;96136.28;5114566;28;19973;-75
2022/04/26 09:45:03;;;;;;;;;;;;;;;11.59;61.07;96121.38;5114648;28;19973;-75
2022/04/26 09:47:39;;;;;;;;;;;;;;;11.56;65.60;96175.13;5114773;28;19960;-74
2022/04/26 09:50:06;;;;;;;;;;;;;;;11.60;67.45;96198.31;5114462;28;19961;-74
2022/04/26 09:52:31;;;;;;;;;;;;;;;11.62;66.86;96185.75;5114459;28;19957;-75
2022/04/26 09:55:00;;;;;;;;;;;;;;;11.72;67.08;96194.66;5114484;28;20018;-74
2022/04/26 09:57:28;;;;;;;;;;;;;;;12.00;66.99;96187.09;5114365;28;20331;-75
2022/04/26 09:59:54;;;;;;;;;;;;;;;12.23;66.17;96187.00;5114486;28;19950;-73
2022/04/26 10:02:22;;;;;;;;;;;;;;;12.43;63.22;96147.16;5114293;28;19972;-74
2022/04/26 10:04:52;;;;;;;;;;;;;;;12.68;62.26;96144.16;5114340;28;20380;-74
2022/04/26 10:07:19;;;;;;;;;;;;;;;12.83;60.84;96124.34;5114676;28;19960;-73
2022/04/26 10:09:46;;;;;;;;;;;;;;;12.97;62.13;96144.06;5114220;28;19966;-74
2022/04/26 10:12:12;;;;;;;;;;;;;;;13.13;62.34;96148.50;5114168;28;19958;-74
2022/04/26 10:14:38;;;;;;;;;;;;;;;13.25;61.76;96130.00;5081363;28;19954;-73
2022/04/26 10:17:05;;;;;;;;;;;;;;;13.44;63.09;96156.06;5114501;28;20015;-73
2022/04/26 10:19:40;;;;;;;;;;;;;;;13.65;58.01;96080.72;5113950;28;19958;-73
2022/04/26 10:22:08;;;;;;;;;;;;;;;13.68;58.47;96085.50;5114064;28;19978;-73
2022/04/26 10:24:34;;;;;;;;;;;;;;;13.85;62.61;96143.41;5113434;28;19966;-74
2022/04/26 10:27:16;;;;;;;;;;;;;;;14.07;59.13;96094.13;5114099;28;20310;-73
2022/04/26 10:29:45;;;;;;;;;;;;;;;14.12;57.87;96085.44;5113893;28;19950;-73
2022/04/26 10:32:27;;;;;;;;;;;;;;;14.09;56.25;96075.38;5114376;28;19956;-73
2022/04/26 10:34:53;;;;;;;;;;;;;;;13.95;56.29;96070.53;5100351;28;19956;-73
2022/04/26 10:37:19;;;;;;;;;;;;;;;13.85;59.88;96127.59;5113759;28;19968;-74
2022/04/26 10:39:46;;;;;;;;;;;;;;;13.72;57.48;96091.88;5114173;28;20019;-74
2022/04/26 10:42:15;;;;;;;;;;;;;;;13.63;58.47;96098.59;5113833;28;19996;-73
2022/04/26 10:44:45;;;;;;;;;;;;;;;13.46;56.14;96081.06;5113783;28;19948;-73
2022/04/26 10:47:20;;;;;;;;;;;;;;;13.37;59.90;96132.53;5095661;28;19954;-73
2022/04/26 10:49:47;;;;;;;;;;;;;;;13.28;58.73;96121.59;5113602;28;19950;-74
2022/04/26 10:52:18;;;;;;;;;;;;;;;13.37;60.54;96143.06;5113698;28;19963;-74
2022/04/26 10:54:58;;;;;;;;;;;;;;;13.59;60.46;96135.22;5114254;28;19953;-74
2022/04/26 10:57:26;;;;;;;;;;;;;;;13.68;61.39;96156.66;5114136;28;19964;-74
2022/04/26 10:59:56;;;;;;;;;;;;;;;13.70;58.11;96110.56;5113741;28;19953;-74
2022/04/26 11:02:23;;;;;;;;;;;;;;;13.66;57.63;96104.19;5113524;28;19970;-74
2022/04/26 11:05:00;;;;;;;;;;;;;;;13.50;54.73;96074.25;5114477;28;20395;-74
2022/04/26 11:07:27;;;;;;;;;;;;;;;13.35;56.67;96110.91;5113367;28;20329;-73
2022/04/26 11:09:54;;;;;;;;;;;;;;;13.21;53.90;96073.59;5113607;28;19955;-74
2022/04/26 11:12:34;;;;;;;;;;;;;;;13.24;52.05;96059.91;5113699;28;20306;-74
2022/04/26 11:15:04;;;;;;;;;;;;;;;13.62;53.33;96071.47;5113546;28;19965;-74
2022/04/26 11:17:30;;;;;;;;;;;;;;;14.09;51.05;96049.03;5113498;28;20328;-74
2022/04/26 11:19:58;;;;;;;;;;;;;;;14.47;50.35;96024.31;5113489;28;19962;-74
2022/04/26 11:22:24;;;;;;;;;;;;;;;14.72;44.01;96120.56;5113723;28;20432;-74
2022/04/26 11:28:06;;;;;;;;;;;;;;;15.01;46.82;96208.19;5113363;28;19967;-73
2022/04/26 11:30:48;;;;;;;;;;;;;;;15.06;44.18;96197.69;5113719;28;19958;-74
2022/04/26 11:33:15;;;;;;;;;;;;;;;15.15;45.83;96208.56;5113260;28;19953;-74
2022/04/26 11:35:42;;;;;;;;;;;;;;;15.34;45.84;96207.13;5078585;28;19961;-73
2022/04/26 11:38:11;;;;;;;;;;;;;;;15.51;46.96;96212.25;5116804;28;19965;-74
2022/04/26 11:40:38;;;;;;;;;;;;;;;15.56;42.66;96214.94;5117184;28;20314;-74
2022/04/26 11:43:08;;;;;;;;;;;;;;;15.35;46.74;96229.88;5116940;28;19961;-74
2022/04/26 11:45:34;;;;;;;;;;;;;;;14.97;46.01;96242.22;5117118;28;19951;-73
2022/04/26 11:48:00;;;;;;;;;;;;;;;14.58;46.03;96252.94;5116935;28;19963;-74
2022/04/26 11:50:27;;;;;;;;;;;;;;;14.33;47.47;96258.69;5116628;28;19958;-74
2022/04/26 11:52:58;;;;;;;;;;;;;;;14.09;49.31;96267.88;5117076;28;19974;-74
2022/04/26 11:55:31;;;;;;;;;;;;;;;13.97;49.32;96260.88;5117249;28;19983;-74
2022/04/26 11:58:09;;;;;;;;;;;;;;;13.79;47.92;96264.59;5116631;28;19967;-74
2022/04/26 12:00:36;;;;;;;;;;;;;;;13.69;50.09;96277.63;5116379;28;19955;-73
2022/04/26 12:03:05;;;;;;;;;;;;;;;13.58;54.33;96287.19;5116037;28;19999;-74
2022/04/26 12:05:35;;;;;;;;;;;;;;;13.45;53.72;96284.13;5116731;28;19966;-73
2022/04/26 12:08:02;;;;;;;;;;;;;;;13.20;53.40;96288.69;5116310;28;20407;-74
2022/04/26 12:10:35;;;;;;;;;;;;;;;13.17;53.52;96288.38;5116364;28;19951;-73
2022/04/26 12:13:05;;;;;;;;;;;;;;;13.10;53.49;96301.72;5116174;28;19968;-74
2022/04/26 12:15:32;;;;;;;;;;;;;;;13.13;53.34;96301.22;5116936;28;19963;-74
2022/04/26 12:18:06;;;;;;;;;;;;;;;13.09;50.47;96294.81;5098290;28;20425;-73
2022/04/26 12:20:54;;;;;;;;;;;;;;;13.15;50.11;96296.50;5105484;28;19981;-74
2022/04/26 12:23:43;;;;;;;;;;;;;;;13.12;49.97;96294.38;5078722;28;20448;-74
2022/04/26 12:26:10;;;;;;;;;;;;;;;13.11;50.93;96308.56;5116212;28;19957;-74
2022/04/26 12:28:46;;;;;;;;;;;;;;;13.13;48.02;96290.69;5115946;28;19955;-74
2022/04/26 12:31:30;;;;;;;;;;;;;;;13.20;50.91;96312.38;5115920;28;19960;-74
2022/04/26 12:34:15;;;;;;;;;;;;;;;13.14;50.03;96302.00;5116120;28;19964;-74
2022/04/26 12:36:54;;;;;;;;;;;;;;;13.07;50.17;96311.91;5115737;28;19962;-74
2022/04/26 12:39:21;;;;;;;;;;;;;;;12.98;49.75;96308.84;5115836;28;19959;-74
2022/04/26 12:41:48;;;;;;;;;;;;;;;12.98;48.86;96311.50;5115769;28;19968;-74
2022/04/26 12:44:14;;;;;;;;;;;;;;;13.02;51.19;96311.78;5115815;28;19963;-74
2022/04/26 12:46:47;;;;;;;;;;;;;;;13.02;51.44;96325.78;5115241;28;19961;-74
2022/04/26 12:51:57;;;;;;;;;;;;;;;13.01;51.88;96337.31;5100211;28;19962;-74
2022/04/26 12:54:23;;;;;;;;;;;;;;;13.04;53.01;96339.50;5115582;28;20415;-74
2022/04/26 12:56:56;;;;;;;;;;;;;;;13.03;54.24;96342.38;5115249;28;19960;-73
2022/04/26 12:59:22;;;;;;;;;;;;;;;13.07;53.64;96346.13;5101317;28;19959;-73
2022/04/26 13:01:48;;;;;;;;;;;;;;;13.06;52.96;96340.06;5097029;28;20317;-74
2022/04/26 13:04:14;;;;;;;;;;;;;;;12.90;49.66;96320.56;5115031;28;19987;-74
2022/04/26 13:06:39;;;;;;;;;;;;;;;12.86;52.04;96324.69;5114857;28;19978;-73
2022/04/26 13:09:05;;;;;;;;;;;;;;;12.98;52.26;96330.72;5115276;28;19954;-74
2022/04/26 13:11:32;;;;;;;;;;;;;;;13.04;46.99;96321.06;5115147;28;19971;-74
2022/04/26 13:13:57;;;;;;;;;;;;;;;12.87;47.57;96313.16;5115058;28;20415;-74
2022/04/26 13:16:23;;;;;;;;;;;;;;;12.80;50.45;96336.94;5115187;28;19962;-74
2022/04/26 13:18:49;;;;;;;;;;;;;;;12.65;53.47;96355.06;5113938;28;20031;-74
2022/04/26 13:21:15;;;;;;;;;;;;;;;12.53;53.87;96360.34;5114980;28;19980;-73
2022/04/26 13:23:41;;;;;;;;;;;;;;;12.38;54.08;96362.69;5114772;28;19966;-74
2022/04/26 13:26:07;;;;;;;;;;;;;;;12.23;52.77;96360.53;5115228;28;19960;-74
2022/04/26 13:28:33;;;;;;;;;;;;;;;12.00;53.65;96371.84;5114736;28;20043;-74
2022/04/26 13:30:59;;;;;;;;;;;;;;;11.76;54.29;96377.06;5115152;28;20023;-73
2022/04/26 13:33:25;;;;;;;;;;;;;;;11.72;55.43;96385.63;5114920;28;19968;-74
2022/04/26 13:35:51;;;;;;;;;;;;;;;11.71;56.85;96379.53;5114552;28;19961;-74
2022/04/26 13:38:17;;;;;;;;;;;;;;;11.61;55.66;96371.41;5114470;28;20009;-74
2022/04/26 13:40:43;;;;;;;;;;;;;;;11.55;56.34;96377.59;5096267;28;19964;-74
2022/04/26 13:43:09;;;;;;;;;;;;;;;11.46;56.21;96378.94;5114598;28;19985;-74
2022/04/26 13:45:35;;;;;;;;;;;;;;;11.55;56.46;96372.34;5114491;28;20405;-74
2022/04/26 13:48:08;;;;;;;;;;;;;;;11.65;55.50;96359.44;5114455;28;19954;-74
2022/04/26 13:50:34;;;;;;;;;;;;;;;11.77;54.58;96359.47;5114542;28;20351;-74
2022/04/26 13:53:20;;;;;;;;;;;;;;;11.78;56.01;96366.31;5101943;28;19966;-75
2022/04/26 13:55:46;;;;;;;;;;;;;;;11.81;54.96;96363.22;5114534;28;19959;-73
2022/04/26 13:58:12;;;;;;;;;;;;;;;11.78;54.05;96361.88;5095747;28;20048;-73
2022/04/26 14:00:38;;;;;;;;;;;;;;;11.69;53.77;96359.78;5114312;28;19956;-74
2022/04/26 14:03:07;;;;;;;;;;;;;;;11.57;55.95;96375.53;5113961;28;20562;-74
2022/04/26 14:05:34;;;;;;;;;;;;;;;11.62;56.77;96393.25;5114347;28;19961;-74
2022/04/26 14:08:00;;;;;;;;;;;;;;;11.85;56.49;96389.88;5114622;28;19969;-74
2022/04/26 14:10:26;;;;;;;;;;;;;;;12.05;54.46;96376.41;5114219;28;19957;-74
2022/04/26 14:12:52;;;;;;;;;;;;;;;12.32;55.29;96369.66;5114299;28;20012;-74
2022/04/26 14:23:32;;;;;;;;;;;;;;;13.22;51.54;96342.97;5099195;28;19986;-73
2022/04/26 14:25:58;;;;;;;;;;;;;;;13.37;50.73;96346.66;5114374;28;19959;-73
2022/04/26 14:28:24;;;;;;;;;;;;;;;13.43;51.96;96352.84;5114010;28;19966;-73
2022/04/26 14:30:49;;;;;;;;;;;;;;;13.41;49.86;96339.09;5095742;28;20047;-73
2022/04/26 14:33:17;;;;;;;;;;;;;;;13.43;51.79;96367.84;5113252;28;20007;-73
2022/04/26 14:35:44;;;;;;;;;;;;;;;13.34;51.29;96354.28;5113778;28;19957;-73
2022/04/26 14:38:10;;;;;;;;;;;;;;;13.37;51.25;96369.59;5114003;28;19973;-73
2022/04/26 14:40:37;;;;;;;;;;;;;;;13.49;51.35;96351.88;5095717;28;19966;-73
2022/04/26 14:43:04;;;;;;;;;;;;;;;13.48;51.24;96352.13;5113887;28;20326;-74
2022/04/26 14:45:32;;;;;;;;;;;;;;;13.36;50.89;96350.34;5113640;28;19980;-74
2022/04/26 14:48:00;;;;;;;;;;;;;;;13.37;50.45;96348.50;5113644;28;19964;-73
2022/04/26 14:50:26;;;;;;;;;;;;;;;13.23;48.68;96352.44;5113378;28;19967;-73
2022/04/26 14:52:53;;;;;;;;;;;;;;;13.00;52.06;96359.44;5113823;28;19962;-73
2022/04/26 14:55:18;;;;;;;;;;;;;;;12.85;52.36;96361.75;5113748;28;19965;-74
2022/04/26 14:57:44;;;;;;;;;;;;;;;12.73;52.62;96364.44;5113806;28;19979;-74
2022/04/26 15:00:10;;;;;;;;;;;;;;;12.65;52.86;96362.97;5113672;28;19959;-74
2022/04/26 15:02:39;;;;;;;;;;;;;;;12.61;54.13;96361.03;5113637;28;19978;-74
2022/04/26 15:05:07;;;;;;;;;;;;;;;12.60;53.31;96368.13;5113305;28;20041;-74
2022/04/26 15:09:42;;;;;;;;;;;;;;;12.63;53.46;96369.50;5095539;28;19967;-73
2022/04/26 15:10:19;;;;;;;;;;;;;;;12.78;54.12;96380.31;5115178;28;19961;-74
2022/04/26 15:18:14;;;;;;;;;;;;;;;12.60;56.06;96376.03;5105363;28;19954;-75
2022/04/26 15:20:45;;;;;;;;;;;;;;;12.61;56.80;96377.63;5117569;28;20006;-73
2022/04/26 15:23:11;;;;;;;;;;;;;;;12.50;57.23;96381.06;5117336;28;19984;-74
2022/04/26 15:25:37;;;;;;;;;;;;;;;12.54;58.78;96387.47;5117758;28;19957;-72
2022/04/26 15:28:03;;;;;;;;;;;;;;;12.70;59.47;96386.72;5117556;28;19961;-72
2022/04/26 15:30:29;;;;;;;;;;;;;;;12.83;56.72;96374.34;5117017;28;20376;-72
2022/04/26 15:32:55;;;;;;;;;;;;;;;12.77;56.87;96387.41;5116625;28;19966;-72
2022/04/26 15:35:21;;;;;;;;;;;;;;;12.72;56.43;96375.97;5116373;28;19960;-73
2022/04/26 15:37:48;;;;;;;;;;;;;;;12.65;56.44;96383.22;5117220;28;20010;-73
2022/04/26 15:40:13;;;;;;;;;;;;;;;12.49;57.95;96384.72;5117004;28;19957;-73
2022/04/26 15:42:40;;;;;;;;;;;;;;;12.38;57.92;96397.66;5116989;28;19977;-73
2022/04/26 15:45:06;;;;;;;;;;;;;;;12.38;57.48;96391.59;5097968;28;19951;-73
2022/04/26 15:47:33;;;;;;;;;;;;;;;12.37;55.76;96390.81;5116923;28;19960;-73
2022/04/26 15:49:59;;;;;;;;;;;;;;;12.41;56.87;96391.16;5116879;28;19963;-73
2022/04/26 15:52:25;;;;;;;;;;;;;;;12.47;56.73;96397.31;5098594;28;19965;-72
2022/04/26 15:54:51;;;;;;;;;;;;;;;12.55;55.76;96384.59;5116657;28;19959;-73
2022/04/26 15:57:17;;;;;;;;;;;;;;;12.58;54.59;96383.34;5116971;28;19961;-72
2022/04/26 15:59:43;;;;;;;;;;;;;;;12.58;54.02;96386.78;5116674;28;20437;-72
2022/04/26 16:02:09;;;;;;;;;;;;;;;12.59;54.51;96383.09;5116552;28;19979;-72
2022/04/26 16:04:35;;;;;;;;;;;;;;;12.58;54.89;96383.34;5098227;28;20006;-72
2022/04/26 16:07:01;;;;;;;;;;;;;;;12.53;54.00;96380.59;5116603;28;20436;-73
2022/04/26 16:20:34;;;;;;;;;;;;;;;12.15;54.80;96397.66;5108970;28;19962;-72
2022/04/26 16:23:02;;;;;;;;;;;;;;;12.12;56.23;96412.06;5115203;28;19972;-73
2022/04/26 16:25:28;;;;;;;;;;;;;;;12.11;56.05;96402.56;5098199;28;19961;-73
2022/04/26 16:27:54;;;;;;;;;;;;;;;12.06;55.66;96407.72;5116106;28;19966;-72
2022/04/26 16:30:20;;;;;;;;;;;;;;;12.00;56.71;96421.78;5116071;28;20419;-73
2022/04/26 16:32:46;;;;;;;;;;;;;;;12.03;56.53;96417.88;5115972;28;19956;-72
2022/04/26 16:35:12;;;;;;;;;;;;;;;12.07;56.70;96427.72;5115866;28;19954;-72
2022/04/26 16:37:38;;;;;;;;;;;;;;;12.07;56.22;96425.09;5115788;28;19974;-72
2022/04/26 16:40:05;;;;;;;;;;;;;;;12.06;56.67;96420.88;5115830;28;19969;-73
2022/04/26 16:42:30;;;;;;;;;;;;;;;12.07;57.17;96429.56;5115825;28;20346;-72
2022/04/26 16:44:56;;;;;;;;;;;;;;;12.07;58.15;96438.22;5115783;28;20016;-72
2022/04/26 16:47:22;;;;;;;;;;;;;;;12.03;57.28;96428.41;5115552;28;20043;-72
2022/04/26 16:49:48;;;;;;;;;;;;;;;11.93;57.32;96439.50;5115799;28;20054;-72
2022/04/26 16:52:14;;;;;;;;;;;;;;;11.77;56.67;96436.44;5115533;28;20451;-72
2022/04/26 16:54:40;;;;;;;;;;;;;;;11.65;57.80;96446.13;5097262;28;19966;-75
2022/04/26 16:57:06;;;;;;;;;;;;;;;11.53;57.30;96440.06;5115524;28;20089;-72
2022/04/26 16:59:32;;;;;;;;;;;;;;;11.45;57.43;96441.16;5115668;28;20023;-72
2022/04/26 17:01:57;;;;;;;;;;;;;;;11.36;57.24;96447.75;5097108;28;19950;-73
2022/04/26 17:04:24;;;;;;;;;;;;;;;11.18;56.56;96435.47;5097092;28;19982;-72
2022/04/26 17:06:50;;;;;;;;;;;;;;;11.03;58.35;96453.41;5115329;28;19962;-73
2022/04/26 17:09:16;;;;;;;;;;;;;;;10.93;57.77;96452.09;5115458;28;19954;-73
2022/04/26 17:11:42;;;;;;;;;;;;;;;10.86;57.47;96450.59;5115091;28;20316;-72
2022/04/26 17:14:09;;;;;;;;;;;;;;;10.77;58.27;96463.16;5115641;28;19960;-72